createdAt,value
2023-12-11T00:01:51.454Z,10.78
2023-12-11T00:04:04.422Z,10.79
2023-12-11T00:06:18.376Z,10.81
2023-12-11T00:08:31.308Z,10.83
2023-12-11T00:10:44.419Z,10.84
2023-12-11T00:12:57.068Z,10.86
2023-12-11T00:15:12.437Z,10.86
2023-12-11T00:17:25.194Z,10.88
2023-12-11T00:19:37.883Z,10.90
2023-12-11T00:21:50.461Z,10.92
2023-12-11T00:24:03.513Z,10.93
2023-12-11T00:26:16.238Z,10.94
2023-12-11T00:28:29.247Z,10.95
2023-12-11T00:30:42.247Z,10.96
2023-12-11T00:32:56.577Z,10.90
2023-12-11T00:35:09.646Z,10.89
2023-12-11T00:37:22.923Z,10.83
2023-12-11T00:39:35.948Z,10.76
2023-12-11T00:41:49.963Z,10.68
2023-12-11T00:44:02.797Z,10.59
2023-12-11T00:46:17.921Z,10.54
2023-12-11T00:48:30.580Z,10.50
2023-12-11T00:50:43.457Z,10.50
2023-12-11T00:52:56.197Z,10.52
2023-12-11T00:55:09.790Z,10.56
2023-12-11T00:57:22.705Z,10.58
2023-12-11T00:59:35.413Z,10.58
2023-12-11T01:01:48.752Z,10.64
2023-12-11T01:04:01.802Z,10.67
2023-12-11T01:06:15.056Z,10.69
2023-12-11T01:08:29.960Z,10.72
2023-12-11T01:10:42.765Z,10.73
2023-12-11T01:12:55.319Z,10.74
2023-12-11T01:15:08.411Z,10.75
2023-12-11T01:17:37.759Z,10.75
2023-12-11T01:19:50.714Z,10.77
2023-12-11T01:22:03.466Z,10.78
2023-12-11T01:24:17.045Z,10.79
2023-12-11T01:26:30.922Z,10.80
2023-12-11T01:28:43.941Z,10.82
2023-12-11T01:30:56.662Z,10.84
2023-12-11T01:33:09.429Z,10.86
2023-12-11T01:35:22.231Z,10.88
2023-12-11T01:37:35.189Z,10.89
2023-12-11T01:39:48.004Z,10.90
2023-12-11T01:42:01.740Z,10.92
2023-12-11T01:44:14.933Z,10.91
2023-12-11T01:46:28.911Z,10.92
2023-12-11T01:48:42.460Z,10.92
2023-12-11T01:50:55.920Z,10.90
2023-12-11T01:53:09.076Z,10.87
2023-12-11T01:55:21.785Z,10.85
2023-12-11T01:57:35.869Z,10.85
2023-12-11T01:59:49.624Z,10.85
2023-12-11T02:02:03.766Z,10.86
2023-12-11T02:04:18.233Z,10.87
2023-12-11T02:06:31.158Z,10.87
2023-12-11T02:08:44.005Z,10.88
2023-12-11T02:10:57.004Z,10.89
2023-12-11T02:13:10.056Z,10.91
2023-12-11T02:15:42.990Z,10.92
2023-12-11T02:17:55.790Z,10.93
2023-12-11T02:20:08.971Z,10.94
2023-12-11T02:22:22.065Z,10.95
2023-12-11T02:24:37.661Z,10.97
2023-12-11T02:26:51.617Z,10.99
2023-12-11T02:29:04.606Z,11.01
2023-12-11T02:31:17.923Z,11.02
2023-12-11T02:33:31.106Z,11.04
2023-12-11T02:35:48.017Z,11.06
2023-12-11T02:38:00.963Z,11.08
2023-12-11T02:40:15.338Z,11.09
2023-12-11T02:42:28.098Z,11.10
2023-12-11T02:44:41.284Z,11.11
2023-12-11T02:46:53.863Z,11.12
2023-12-11T02:49:06.594Z,11.13
2023-12-11T02:51:19.465Z,11.14
2023-12-11T02:53:32.402Z,11.15
2023-12-11T02:55:45.538Z,11.17
2023-12-11T02:58:00.716Z,11.18
2023-12-11T03:00:12.045Z,11.20
2023-12-11T03:02:22.310Z,11.21
2023-12-11T03:04:33.355Z,11.22
2023-12-11T03:06:43.794Z,11.23
2023-12-11T03:08:54.163Z,11.23
2023-12-11T03:11:04.448Z,11.23
2023-12-11T03:13:14.932Z,11.24
2023-12-11T03:15:25.325Z,11.22
2023-12-11T03:17:35.452Z,11.16
2023-12-11T03:19:45.360Z,11.13
2023-12-11T03:21:57.940Z,11.10
2023-12-11T03:24:08.321Z,11.09
2023-12-11T03:26:18.558Z,11.09
2023-12-11T03:28:30.536Z,11.09
2023-12-11T03:30:41.119Z,11.09
2023-12-11T03:32:51.927Z,11.08
2023-12-11T03:35:02.793Z,11.07
2023-12-11T03:37:14.355Z,11.07
2023-12-11T03:39:24.313Z,11.07
2023-12-11T03:41:34.609Z,11.07
2023-12-11T03:43:44.928Z,11.07
2023-12-11T03:45:57.874Z,11.07
2023-12-11T03:48:08.308Z,11.04
2023-12-11T03:50:18.867Z,10.99
2023-12-11T03:52:28.975Z,10.92
2023-12-11T03:54:39.616Z,10.89
2023-12-11T03:56:49.580Z,10.87
2023-12-11T03:58:59.403Z,10.86
2023-12-11T04:01:12.617Z,10.82
2023-12-11T04:03:22.981Z,10.80
2023-12-11T04:05:33.511Z,10.79
2023-12-11T04:07:43.546Z,10.80
2023-12-11T04:09:53.552Z,10.80
2023-12-11T04:12:03.666Z,10.79
2023-12-11T04:14:13.901Z,10.78
2023-12-11T04:16:23.978Z,10.75
2023-12-11T04:18:34.028Z,10.77
2023-12-11T04:20:44.371Z,10.78
2023-12-11T04:22:54.759Z,10.79
2023-12-11T04:25:05.044Z,10.81
2023-12-11T04:27:15.066Z,10.83
2023-12-11T04:29:25.251Z,10.84
2023-12-11T04:31:35.698Z,10.86
2023-12-11T04:33:45.761Z,10.86
2023-12-11T04:35:56.591Z,10.87
2023-12-11T04:38:06.706Z,10.86
2023-12-11T04:40:18.174Z,10.84
2023-12-11T04:42:28.272Z,10.84
2023-12-11T04:44:38.846Z,10.85
2023-12-11T04:46:49.121Z,10.86
2023-12-11T04:49:00.346Z,10.87
2023-12-11T04:51:10.921Z,10.88
2023-12-11T04:53:21.178Z,10.89
2023-12-11T04:55:31.505Z,10.89
2023-12-11T04:57:41.699Z,10.89
2023-12-11T04:59:51.977Z,10.88
2023-12-11T05:02:02.159Z,10.88
2023-12-11T05:04:12.260Z,10.88
2023-12-11T05:06:22.594Z,10.88
2023-12-11T05:08:32.638Z,10.88
2023-12-11T05:10:42.601Z,10.87
2023-12-11T05:12:52.527Z,10.88
2023-12-11T05:15:03.876Z,10.87
2023-12-11T05:17:14.094Z,10.87
2023-12-11T05:19:24.537Z,10.87
2023-12-11T05:21:35.034Z,10.88
2023-12-11T05:23:45.192Z,10.86
2023-12-11T05:25:56.025Z,10.86
2023-12-11T05:28:06.009Z,10.84
2023-12-11T05:30:16.289Z,10.83
2023-12-11T05:32:26.836Z,10.81
2023-12-11T05:34:36.874Z,10.82
2023-12-11T05:36:46.849Z,10.82
2023-12-11T05:38:57.041Z,10.81
2023-12-11T05:41:07.925Z,10.80
2023-12-11T05:43:18.114Z,10.77
2023-12-11T05:45:28.351Z,10.75
2023-12-11T05:47:38.651Z,10.75
2023-12-11T05:49:48.731Z,10.74
2023-12-11T05:51:58.745Z,10.77
2023-12-11T05:54:09.712Z,10.78
2023-12-11T05:56:19.758Z,10.79
2023-12-11T05:58:29.726Z,10.80
2023-12-11T06:00:39.816Z,10.80
2023-12-11T06:02:50.150Z,10.83
2023-12-11T06:05:00.999Z,10.84
2023-12-11T06:07:11.046Z,10.85
2023-12-11T06:09:20.992Z,10.87
2023-12-11T06:11:31.087Z,10.88
2023-12-11T06:13:41.387Z,10.89
2023-12-11T06:15:51.635Z,10.90
2023-12-11T06:18:01.731Z,10.91
2023-12-11T06:20:12.528Z,10.92
2023-12-11T06:22:23.084Z,10.92
2023-12-11T06:24:33.218Z,10.93
2023-12-11T06:26:44.567Z,10.94
2023-12-11T06:28:54.804Z,10.94
2023-12-11T06:31:04.811Z,10.95
2023-12-11T06:33:14.988Z,10.95
2023-12-11T06:35:25.328Z,10.96
2023-12-11T06:37:36.051Z,10.96
2023-12-11T06:39:46.312Z,10.97
2023-12-11T06:41:57.661Z,10.98
2023-12-11T06:44:09.196Z,10.98
2023-12-11T06:46:19.324Z,10.99
2023-12-11T06:48:29.523Z,10.99
2023-12-11T06:50:39.594Z,11.00
2023-12-11T06:52:49.862Z,11.00
2023-12-11T06:54:59.786Z,11.00
2023-12-11T06:57:09.852Z,11.01
2023-12-11T06:59:20.117Z,11.01
2023-12-11T07:01:32.918Z,11.01
2023-12-11T07:03:47.282Z,11.02
2023-12-11T07:05:57.454Z,11.02
2023-12-11T07:08:07.540Z,11.03
2023-12-11T07:10:17.612Z,11.02
2023-12-11T07:12:27.629Z,11.02
2023-12-11T07:14:37.640Z,11.02
2023-12-11T07:16:47.556Z,11.03
2023-12-11T07:18:57.607Z,11.02
2023-12-11T07:21:10.837Z,11.03
2023-12-11T07:23:20.727Z,11.03
2023-12-11T07:25:31.141Z,11.02
2023-12-11T07:27:41.545Z,11.02
2023-12-11T07:29:51.746Z,11.02
2023-12-11T07:32:01.677Z,11.01
2023-12-11T07:34:12.062Z,11.03
2023-12-11T07:36:22.196Z,11.03
2023-12-11T07:38:32.621Z,11.04
2023-12-11T07:40:42.699Z,11.03
2023-12-11T07:42:52.727Z,11.02
2023-12-11T07:45:02.659Z,11.01
2023-12-11T07:47:12.592Z,11.01
2023-12-11T07:49:22.729Z,11.00
2023-12-11T07:51:32.689Z,11.00
2023-12-11T07:53:42.653Z,11.00
2023-12-11T07:55:53.205Z,11.01
2023-12-11T07:58:03.136Z,11.01
2023-12-11T08:00:15.359Z,11.02
2023-12-11T08:02:25.508Z,11.02
2023-12-11T08:04:35.922Z,11.01
2023-12-11T08:06:46.362Z,10.99
2023-12-11T08:08:57.623Z,10.95
2023-12-11T08:11:08.047Z,10.89
2023-12-11T08:13:18.040Z,10.83
2023-12-11T08:15:29.174Z,10.78
2023-12-11T08:17:39.366Z,10.73
2023-12-11T08:19:49.406Z,10.69
2023-12-11T08:21:59.899Z,10.64
2023-12-11T08:24:10.699Z,10.61
2023-12-11T08:26:22.231Z,10.57
2023-12-11T08:28:32.523Z,10.52
2023-12-11T08:30:42.603Z,10.47
2023-12-11T08:32:52.849Z,10.41
2023-12-11T08:35:05.965Z,10.35
2023-12-11T08:37:16.370Z,10.30
2023-12-11T08:39:26.250Z,10.25
2023-12-11T08:41:36.202Z,10.21
2023-12-11T08:43:46.028Z,10.19
2023-12-11T08:45:55.975Z,10.16
2023-12-11T08:48:06.046Z,10.15
2023-12-11T08:50:16.984Z,10.14
2023-12-11T08:52:27.166Z,10.14
2023-12-11T08:54:37.092Z,10.15
2023-12-11T08:56:47.125Z,10.16
2023-12-11T08:58:58.204Z,10.18
2023-12-11T09:01:08.352Z,10.19
2023-12-11T09:03:18.502Z,10.19
2023-12-11T09:05:29.480Z,10.19
2023-12-11T09:07:39.461Z,10.17
2023-12-11T09:09:50.185Z,10.14
2023-12-11T09:12:00.531Z,10.13
2023-12-11T09:14:10.821Z,10.10
2023-12-11T09:16:20.926Z,10.10
2023-12-11T09:18:30.926Z,10.08
2023-12-11T09:20:41.245Z,10.06
2023-12-11T09:22:51.200Z,10.03
2023-12-11T09:25:01.263Z,10.01
2023-12-11T09:27:11.453Z,10.00
2023-12-11T09:29:21.474Z,10.00
2023-12-11T09:31:31.513Z,10.00
2023-12-11T09:33:42.608Z,9.99
2023-12-11T09:35:53.591Z,10.00
2023-12-11T09:38:03.508Z,10.00
2023-12-11T09:40:14.903Z,10.01
2023-12-11T09:42:25.162Z,10.03
2023-12-11T09:44:35.660Z,10.04
2023-12-11T09:46:51.889Z,10.06
2023-12-11T09:49:02.002Z,10.07
2023-12-11T09:51:12.185Z,10.08
2023-12-11T09:53:22.944Z,10.08
2023-12-11T09:55:32.875Z,10.09
2023-12-11T09:57:44.423Z,10.09
2023-12-11T09:59:54.923Z,10.09
2023-12-11T10:02:05.921Z,10.09
2023-12-11T10:04:16.655Z,10.07
2023-12-11T10:06:27.929Z,10.06
2023-12-11T10:08:43.489Z,10.04
2023-12-11T10:10:53.658Z,10.03
2023-12-11T10:13:04.298Z,10.02
2023-12-11T10:15:14.744Z,10.00
2023-12-11T10:17:24.759Z,9.97
2023-12-11T10:19:37.836Z,9.96
2023-12-11T10:21:47.826Z,9.95
2023-12-11T10:24:07.782Z,9.94
2023-12-11T10:26:17.780Z,9.94
2023-12-11T10:28:30.785Z,9.94
2023-12-11T10:30:52.624Z,9.94
2023-12-11T10:33:06.079Z,9.92
2023-12-11T10:35:26.692Z,9.91
2023-12-11T10:37:38.443Z,9.90
2023-12-11T10:39:57.538Z,9.89
2023-12-11T10:42:15.922Z,9.88
2023-12-11T10:46:45.718Z,9.87
2023-12-11T10:48:57.051Z,9.86
2023-12-11T10:51:07.159Z,9.86
2023-12-11T10:53:17.366Z,9.85
2023-12-11T10:55:27.470Z,9.86
2023-12-11T10:57:37.835Z,9.86
2023-12-11T10:59:48.209Z,9.87
2023-12-11T11:01:59.514Z,9.88
2023-12-11T11:04:09.673Z,9.89
2023-12-11T11:06:19.667Z,9.89
2023-12-11T11:08:34.710Z,9.89
2023-12-11T11:10:48.124Z,9.86
2023-12-11T11:13:00.571Z,9.84
2023-12-11T11:15:12.306Z,9.83
2023-12-11T11:17:22.057Z,9.82
2023-12-11T11:19:31.981Z,9.82
2023-12-11T11:21:42.023Z,9.82
2023-12-11T11:23:51.949Z,9.80
2023-12-11T11:26:02.283Z,9.80
2023-12-11T11:28:32.445Z,9.80
2023-12-11T11:30:55.128Z,9.79
2023-12-11T11:33:07.156Z,9.80
2023-12-11T11:35:37.322Z,9.79
2023-12-11T11:37:54.086Z,9.80
2023-12-11T11:40:05.197Z,9.80
2023-12-11T11:42:15.372Z,9.80
2023-12-11T11:44:25.581Z,9.80
2023-12-11T11:46:58.234Z,9.80
2023-12-11T11:49:39.910Z,9.80
2023-12-11T11:52:23.731Z,9.80
2023-12-11T11:54:49.329Z,9.80
2023-12-11T11:56:59.379Z,9.80
2023-12-11T11:59:09.235Z,9.80
2023-12-11T12:01:19.377Z,9.82
2023-12-11T12:03:29.278Z,9.83
2023-12-11T12:05:39.582Z,9.84
2023-12-11T12:07:49.565Z,9.84
2023-12-11T12:10:01.679Z,9.85
2023-12-11T12:12:18.460Z,9.85
2023-12-11T12:14:29.493Z,9.85
2023-12-11T12:16:40.012Z,9.85
2023-12-11T12:18:56.879Z,9.84
2023-12-11T12:21:07.672Z,9.82
2023-12-11T12:23:17.513Z,9.80
2023-12-11T12:25:28.657Z,9.78
2023-12-11T12:27:39.575Z,9.77
2023-12-11T12:29:49.677Z,9.78
2023-12-11T12:32:00.230Z,9.76
2023-12-11T12:34:10.875Z,9.74
2023-12-11T12:36:20.827Z,9.72
2023-12-11T12:38:30.790Z,9.70
2023-12-11T12:40:40.949Z,9.67
2023-12-11T12:42:51.154Z,9.64
2023-12-11T12:45:01.178Z,9.63
2023-12-11T12:47:12.667Z,9.61
2023-12-11T12:49:24.906Z,9.59
2023-12-11T12:51:34.696Z,9.54
2023-12-11T12:53:54.065Z,9.56
2023-12-11T12:56:04.458Z,9.55
2023-12-11T12:58:16.902Z,9.55
2023-12-11T13:00:28.541Z,9.55
2023-12-11T13:02:38.389Z,9.55
2023-12-11T13:04:54.867Z,9.55
2023-12-11T13:07:15.944Z,9.56
2023-12-11T13:09:35.828Z,9.57
2023-12-11T13:11:51.212Z,9.60
2023-12-11T13:14:01.985Z,9.61
2023-12-11T13:16:12.848Z,9.61
2023-12-11T13:18:22.699Z,9.63
2023-12-11T13:20:32.785Z,9.63
2023-12-11T13:22:42.592Z,9.64
2023-12-11T13:24:54.168Z,9.65
2023-12-11T13:27:04.709Z,9.65
2023-12-11T13:29:14.554Z,9.65
2023-12-11T13:31:24.802Z,9.65
2023-12-11T13:33:36.484Z,9.64
2023-12-11T13:35:46.420Z,9.62
2023-12-11T13:37:56.509Z,9.60
2023-12-11T13:40:07.365Z,9.58
2023-12-11T13:42:17.583Z,9.56
2023-12-11T13:44:27.817Z,9.54
2023-12-11T13:46:37.648Z,9.54
2023-12-11T13:48:48.673Z,9.53
2023-12-11T13:50:58.818Z,9.52
2023-12-11T13:53:08.800Z,9.51
2023-12-11T13:55:18.801Z,9.51
2023-12-11T13:57:28.940Z,9.50
2023-12-11T13:59:38.974Z,9.49
2023-12-11T14:01:49.596Z,9.48
2023-12-11T14:03:59.822Z,9.46
2023-12-11T14:06:10.092Z,9.45
2023-12-11T14:08:20.124Z,9.45
2023-12-11T14:10:30.756Z,9.44
2023-12-11T14:12:41.065Z,9.43
2023-12-11T14:14:51.318Z,9.43
2023-12-11T14:17:01.247Z,9.41
2023-12-11T14:19:11.233Z,9.40
2023-12-11T14:21:21.506Z,9.38
2023-12-11T14:23:31.639Z,9.38
2023-12-11T14:25:41.564Z,9.36
2023-12-11T14:27:51.520Z,9.35
2023-12-11T14:30:01.598Z,9.33
2023-12-11T14:32:12.543Z,9.31
2023-12-11T14:34:22.416Z,9.30
2023-12-11T14:36:32.314Z,9.29
2023-12-11T14:38:42.570Z,9.29
2023-12-11T14:40:52.409Z,9.28
2023-12-11T14:43:04.506Z,9.25
2023-12-11T14:45:15.257Z,9.25
2023-12-11T14:47:27.064Z,9.25
2023-12-11T14:49:37.151Z,9.24
2023-12-11T14:51:47.032Z,9.24
2023-12-11T14:53:56.850Z,9.24
2023-12-11T14:56:07.195Z,9.23
2023-12-11T14:58:17.456Z,9.23
2023-12-11T15:00:27.576Z,9.22
2023-12-11T15:02:37.658Z,9.20
2023-12-11T15:04:48.122Z,9.22
2023-12-11T15:06:58.659Z,9.20
2023-12-11T15:09:09.297Z,9.19
2023-12-11T15:11:21.505Z,9.18
2023-12-11T15:13:32.841Z,9.17
2023-12-11T15:15:43.557Z,9.16
2023-12-11T15:17:54.034Z,9.15
2023-12-11T15:20:08.429Z,9.13
2023-12-11T15:22:18.587Z,9.10
2023-12-11T15:24:28.478Z,9.06
2023-12-11T15:26:38.775Z,9.07
2023-12-11T15:28:48.819Z,9.06
2023-12-11T15:31:12.787Z,9.04
2023-12-11T15:33:24.431Z,9.03
2023-12-11T15:35:34.765Z,9.01
2023-12-11T15:37:44.935Z,9.01
2023-12-11T15:39:54.764Z,9.00
2023-12-11T15:42:05.015Z,9.00
2023-12-11T15:44:14.972Z,8.98
2023-12-11T15:46:25.515Z,9.00
2023-12-11T15:48:35.517Z,8.99
2023-12-11T15:50:45.709Z,8.97
2023-12-11T15:52:55.733Z,8.95
2023-12-11T15:55:06.229Z,8.94
2023-12-11T15:57:16.461Z,8.93
2023-12-11T15:59:26.508Z,8.93
2023-12-11T16:01:36.744Z,8.92
2023-12-11T16:03:47.256Z,8.87
2023-12-11T16:05:57.915Z,8.87
2023-12-11T16:08:08.824Z,8.84
2023-12-11T16:10:19.182Z,8.80
2023-12-11T16:12:29.606Z,8.76
2023-12-11T16:14:41.903Z,8.72
2023-12-11T16:16:52.938Z,8.73
2023-12-11T16:19:03.806Z,8.73
2023-12-11T16:21:14.562Z,8.74
2023-12-11T16:23:24.841Z,8.74
2023-12-11T16:25:36.223Z,8.74
2023-12-11T16:27:47.318Z,8.76
2023-12-11T16:29:57.253Z,8.75
2023-12-11T16:32:07.141Z,8.75
2023-12-11T16:34:17.226Z,8.75
2023-12-11T16:36:27.649Z,8.77
2023-12-11T16:38:37.669Z,8.80
2023-12-11T16:40:47.725Z,8.82
2023-12-11T16:42:57.691Z,8.82
2023-12-11T16:45:08.130Z,8.84
2023-12-11T16:47:18.223Z,8.84
2023-12-11T16:49:28.130Z,8.86
2023-12-11T16:51:39.700Z,8.89
2023-12-11T16:53:49.843Z,8.91
2023-12-11T16:56:00.344Z,8.92
2023-12-11T16:58:10.414Z,8.94
2023-12-11T17:00:21.714Z,8.94
2023-12-11T17:02:31.963Z,8.94
2023-12-11T17:04:42.125Z,8.94
2023-12-11T17:06:51.990Z,8.95
2023-12-11T17:09:02.325Z,8.96
2023-12-11T17:11:12.472Z,8.96
2023-12-11T17:13:22.780Z,8.98
2023-12-11T17:15:32.915Z,8.98
2023-12-11T17:17:43.412Z,9.00
2023-12-11T17:19:53.601Z,9.01
2023-12-11T17:22:04.461Z,9.03
2023-12-11T17:24:15.062Z,9.05
2023-12-11T17:26:25.413Z,9.07
2023-12-11T17:28:35.471Z,9.08
2023-12-11T17:30:45.394Z,9.10
2023-12-11T17:32:55.338Z,9.11
2023-12-11T17:35:07.162Z,9.14
2023-12-11T17:37:17.416Z,9.15
2023-12-11T17:39:27.435Z,9.17
2023-12-11T17:41:37.445Z,9.18
2023-12-11T17:43:47.090Z,9.20
2023-12-11T17:45:56.967Z,9.21
2023-12-11T17:48:07.733Z,9.22
2023-12-11T17:50:17.593Z,9.22
2023-12-11T17:52:27.775Z,9.24
2023-12-11T17:54:37.534Z,9.26
2023-12-11T17:56:47.287Z,9.28
2023-12-11T17:58:57.954Z,9.30
2023-12-11T18:01:08.247Z,9.32
2023-12-11T18:03:18.217Z,9.33
2023-12-11T18:05:27.967Z,9.34
2023-12-11T18:07:37.817Z,9.36
2023-12-11T18:09:48.152Z,9.37
2023-12-11T18:11:57.976Z,9.39
2023-12-11T18:14:08.246Z,9.41
2023-12-11T18:16:18.466Z,9.44
2023-12-11T18:18:28.717Z,9.46
2023-12-11T18:20:38.620Z,9.48
2023-12-11T18:22:48.361Z,9.50
2023-12-11T18:24:58.091Z,9.52
2023-12-11T18:27:08.415Z,9.54
2023-12-11T18:29:19.853Z,9.55
2023-12-11T18:31:29.620Z,9.56
2023-12-11T18:33:39.575Z,9.55
2023-12-11T18:35:49.698Z,9.54
2023-12-11T18:37:59.995Z,9.54
2023-12-11T18:40:10.609Z,9.54
2023-12-11T18:42:20.311Z,9.55
2023-12-11T18:44:30.393Z,9.55
2023-12-11T18:46:40.573Z,9.55
2023-12-11T18:48:51.269Z,9.55
2023-12-11T18:51:00.955Z,9.54
2023-12-11T18:53:10.884Z,9.55
2023-12-11T18:55:20.776Z,9.57
2023-12-11T18:57:30.874Z,9.58
2023-12-11T18:59:41.069Z,9.58
2023-12-11T19:01:50.992Z,9.59
2023-12-11T19:04:01.063Z,9.60
2023-12-11T19:06:11.771Z,9.60
2023-12-11T19:08:21.727Z,9.61
2023-12-11T19:10:31.682Z,9.62
2023-12-11T19:12:41.698Z,9.62
2023-12-11T19:14:51.528Z,9.63
2023-12-11T19:17:01.612Z,9.63
2023-12-11T19:19:12.246Z,9.61
2023-12-11T19:21:23.277Z,9.63
2023-12-11T19:23:32.901Z,9.66
2023-12-11T19:25:42.689Z,9.68
2023-12-11T19:27:52.796Z,9.71
2023-12-11T19:30:02.541Z,9.74
2023-12-11T19:32:12.779Z,9.76
2023-12-11T19:34:23.864Z,9.80
2023-12-11T19:36:33.737Z,9.83
2023-12-11T19:38:43.956Z,9.85
2023-12-11T19:40:54.058Z,9.88
2023-12-11T19:43:04.205Z,9.90
2023-12-11T19:45:15.351Z,9.96
2023-12-11T19:47:25.205Z,10.01
2023-12-11T19:49:35.422Z,10.05
2023-12-11T19:51:46.263Z,10.07
2023-12-11T19:53:56.892Z,10.10
2023-12-11T19:56:07.443Z,10.12
2023-12-11T19:58:17.333Z,10.13
2023-12-11T20:00:27.516Z,10.15
2023-12-11T20:02:37.214Z,10.16
2023-12-11T20:04:46.971Z,10.19
2023-12-11T20:06:56.784Z,10.22
2023-12-11T20:09:06.709Z,10.24
2023-12-11T20:11:16.378Z,10.26
2023-12-11T20:13:26.160Z,10.28
2023-12-11T20:15:36.576Z,10.29
2023-12-11T20:17:46.787Z,10.30
2023-12-11T20:19:59.667Z,10.31
2023-12-11T20:22:09.587Z,10.32
2023-12-11T20:24:19.904Z,10.35
2023-12-11T20:26:29.736Z,10.37
2023-12-11T20:28:39.623Z,10.37
2023-12-11T20:30:49.840Z,10.38
2023-12-11T20:32:59.698Z,10.39
2023-12-11T20:35:10.977Z,10.39
2023-12-11T20:37:21.408Z,10.40
2023-12-11T20:39:31.206Z,10.42
2023-12-11T20:41:41.271Z,10.43
2023-12-11T20:43:51.960Z,10.45
2023-12-11T20:46:01.588Z,10.46
2023-12-11T20:48:11.570Z,10.46
2023-12-11T20:50:22.179Z,10.47
2023-12-11T20:52:32.026Z,10.48
2023-12-11T20:54:41.782Z,10.49
2023-12-11T20:56:51.460Z,10.49
2023-12-11T20:59:01.327Z,10.49
2023-12-11T21:01:11.153Z,10.49
2023-12-11T21:03:20.930Z,10.49
2023-12-11T21:05:30.769Z,10.50
2023-12-11T21:07:43.397Z,10.52
2023-12-11T21:09:53.651Z,10.52
2023-12-11T21:12:03.465Z,10.52
2023-12-11T21:14:13.388Z,10.54
2023-12-11T21:16:23.354Z,10.56
2023-12-11T21:18:33.449Z,10.56
2023-12-11T21:20:43.554Z,10.56
2023-12-11T21:22:53.408Z,10.57
2023-12-11T21:25:03.654Z,10.57
2023-12-11T21:27:13.896Z,10.55
2023-12-11T21:29:23.858Z,10.55
2023-12-11T21:31:33.635Z,10.56
2023-12-11T21:33:43.835Z,10.57
2023-12-11T21:35:54.468Z,10.57
2023-12-11T21:38:05.364Z,10.56
2023-12-11T21:40:18.357Z,10.56
2023-12-11T21:42:28.384Z,10.54
2023-12-11T21:44:38.166Z,10.53
2023-12-11T21:46:48.876Z,10.54
2023-12-11T21:49:02.203Z,10.54
2023-12-11T21:51:13.709Z,10.54
2023-12-11T21:53:23.392Z,10.54
2023-12-11T21:55:33.300Z,10.54
2023-12-11T21:57:43.387Z,10.54
2023-12-11T21:59:53.361Z,10.54
2023-12-11T22:02:03.439Z,10.54
2023-12-11T22:04:16.141Z,10.54
2023-12-11T22:06:26.349Z,10.55
2023-12-11T22:08:36.080Z,10.57
2023-12-11T22:10:45.816Z,10.57
2023-12-11T22:12:55.751Z,10.58
2023-12-11T22:15:05.488Z,10.59
2023-12-11T22:17:15.510Z,10.59
2023-12-11T22:19:25.705Z,10.59
2023-12-11T22:21:35.983Z,10.60
2023-12-11T22:23:45.882Z,10.60
2023-12-11T22:25:55.718Z,10.60
2023-12-11T22:28:06.155Z,10.60
2023-12-11T22:30:16.434Z,10.61
2023-12-11T22:32:26.430Z,10.61
2023-12-11T22:34:36.214Z,10.62
2023-12-11T22:36:46.044Z,10.62
2023-12-11T22:38:55.794Z,10.64
2023-12-11T22:41:05.917Z,10.65
2023-12-11T22:43:16.716Z,10.65
2023-12-11T22:45:26.878Z,10.65
2023-12-11T22:47:36.689Z,10.64
2023-12-11T22:49:46.752Z,10.64
2023-12-11T22:51:56.885Z,10.63
2023-12-11T22:54:07.005Z,10.62
2023-12-11T22:56:17.701Z,10.61
2023-12-11T22:58:27.642Z,10.60
2023-12-11T23:00:38.492Z,10.59
2023-12-11T23:02:48.363Z,10.59
2023-12-11T23:04:59.299Z,10.59
2023-12-11T23:07:09.421Z,10.59
2023-12-11T23:09:19.222Z,10.58
2023-12-11T23:11:29.736Z,10.57
2023-12-11T23:13:39.406Z,10.57
2023-12-11T23:15:49.113Z,10.57
2023-12-11T23:17:58.876Z,10.56
2023-12-11T23:20:09.236Z,10.56
2023-12-11T23:22:19.340Z,10.56
2023-12-11T23:24:29.161Z,10.56
2023-12-11T23:26:39.115Z,10.56
2023-12-11T23:28:48.793Z,10.56
2023-12-11T23:30:58.523Z,10.56
2023-12-11T23:33:08.425Z,10.56
2023-12-11T23:35:18.121Z,10.56
2023-12-11T23:37:28.511Z,10.55
2023-12-11T23:39:38.750Z,10.55
2023-12-11T23:41:48.673Z,10.55
2023-12-11T23:43:59.050Z,10.54
2023-12-11T23:46:09.565Z,10.54
2023-12-11T23:48:19.303Z,10.54
2023-12-11T23:50:29.248Z,10.55
2023-12-11T23:52:39.420Z,10.56
2023-12-11T23:54:49.735Z,10.56
2023-12-11T23:57:00.264Z,10.56
2023-12-11T23:59:10.890Z,10.57
